createdAt,value
2022-09-07T00:00:39.156Z,15.10
2022-09-07T00:04:21.097Z,15.00
2022-09-07T00:08:03.281Z,15.00
2022-09-07T00:11:45.333Z,15.00
2022-09-07T00:15:27.279Z,14.90
2022-09-07T00:19:09.314Z,14.90
2022-09-07T00:22:51.261Z,14.90
2022-09-07T00:26:33.326Z,14.90
2022-09-07T00:30:15.319Z,15.00
2022-09-07T00:34:00.676Z,15.10
2022-09-07T00:37:42.764Z,15.20
2022-09-07T00:41:24.932Z,15.20
2022-09-07T00:45:19.671Z,15.30
2022-09-07T00:49:16.279Z,15.30
2022-09-07T00:53:04.156Z,15.40
2022-09-07T00:56:48.982Z,15.40
2022-09-07T01:00:31.945Z,15.50
2022-09-07T01:04:15.095Z,15.50
2022-09-07T01:07:58.672Z,15.50
2022-09-07T01:11:41.010Z,15.50
2022-09-07T01:15:27.917Z,15.60
2022-09-07T01:19:42.738Z,15.60
2022-09-07T01:23:34.312Z,15.60
2022-09-07T01:27:47.538Z,15.70
2022-09-07T01:31:49.553Z,15.70
2022-09-07T01:35:34.156Z,15.60
2022-09-07T01:39:18.019Z,15.60
2022-09-07T01:43:12.000Z,15.60
2022-09-07T01:47:13.295Z,15.50
2022-09-07T01:51:03.754Z,15.40
2022-09-07T01:54:55.205Z,15.30
2022-09-07T01:58:43.704Z,15.30
2022-09-07T02:02:30.959Z,15.30
2022-09-07T02:06:50.389Z,15.30
2022-09-07T02:11:02.053Z,15.30
2022-09-07T02:14:52.655Z,15.30
2022-09-07T02:18:41.479Z,15.40
2022-09-07T02:22:28.340Z,15.40
2022-09-07T02:26:22.411Z,15.40
2022-09-07T02:30:04.554Z,15.40
2022-09-07T02:33:47.442Z,15.30
2022-09-07T02:37:29.671Z,15.30
2022-09-07T02:41:47.306Z,15.20
2022-09-07T02:46:01.564Z,15.10
2022-09-07T02:49:52.312Z,15.00
2022-09-07T02:53:46.082Z,15.00
2022-09-07T02:57:52.776Z,14.90
2022-09-07T03:02:16.993Z,14.90
2022-09-07T03:06:33.279Z,15.00
2022-09-07T03:10:15.974Z,15.10
2022-09-07T03:14:20.619Z,15.20
2022-09-07T03:18:02.757Z,15.20
2022-09-07T03:21:45.451Z,15.20
2022-09-07T03:25:27.368Z,15.10
2022-09-07T03:29:09.468Z,15.00
2022-09-07T03:32:51.427Z,15.00
2022-09-07T03:36:33.805Z,14.90
2022-09-07T03:40:16.432Z,14.90
2022-09-07T03:44:05.571Z,14.80
2022-09-07T03:47:47.554Z,14.70
2022-09-07T03:51:29.511Z,14.60
2022-09-07T03:55:11.793Z,14.60
2022-09-07T03:58:55.219Z,14.60
2022-09-07T04:02:37.226Z,14.50
2022-09-07T04:06:20.085Z,14.60
2022-09-07T04:10:02.260Z,14.60
2022-09-07T04:13:45.203Z,14.60
2022-09-07T04:17:27.086Z,14.50
2022-09-07T04:21:09.695Z,14.50
2022-09-07T04:24:51.592Z,14.50
2022-09-07T04:28:33.811Z,14.50
2022-09-07T04:32:16.135Z,14.50
2022-09-07T04:36:01.131Z,14.50
2022-09-07T04:39:43.251Z,14.50
2022-09-07T04:43:25.306Z,14.60
2022-09-07T04:47:07.387Z,14.60
2022-09-07T04:50:49.367Z,14.60
2022-09-07T04:54:31.369Z,14.60
2022-09-07T04:58:13.521Z,14.60
2022-09-07T05:01:55.440Z,14.60
2022-09-07T05:05:38.627Z,14.70
2022-09-07T05:09:20.694Z,14.70
2022-09-07T05:13:03.021Z,14.80
2022-09-07T05:16:45.118Z,14.90
2022-09-07T05:20:27.100Z,15.00
2022-09-07T05:24:10.248Z,15.00
2022-09-07T05:27:52.807Z,15.10
2022-09-07T05:31:34.862Z,15.20
2022-09-07T05:35:18.319Z,15.20
2022-09-07T05:39:00.289Z,15.20
2022-09-07T05:42:42.360Z,15.20
2022-09-07T05:46:24.487Z,15.30
2022-09-07T05:50:07.656Z,15.30
2022-09-07T05:53:50.706Z,15.20
2022-09-07T05:57:32.645Z,15.20
2022-09-07T06:01:15.035Z,15.10
2022-09-07T06:04:56.978Z,15.10
2022-09-07T06:08:43.418Z,15.10
2022-09-07T06:12:25.401Z,15.10
2022-09-07T06:16:08.311Z,15.00
2022-09-07T06:19:50.224Z,15.10
2022-09-07T06:23:33.209Z,15.10
2022-09-07T06:27:15.112Z,15.10
2022-09-07T06:31:01.809Z,15.20
2022-09-07T06:34:44.041Z,15.40
2022-09-07T06:38:31.815Z,15.50
2022-09-07T06:42:13.956Z,15.70
2022-09-07T06:45:56.090Z,16.10
2022-09-07T06:49:38.243Z,16.30
2022-09-07T06:53:39.513Z,16.60
2022-09-07T06:57:24.357Z,17.00
2022-09-07T07:01:18.609Z,17.40
2022-09-07T07:05:01.305Z,17.90
2022-09-07T07:09:29.997Z,18.30
2022-09-07T07:13:11.956Z,18.60
2022-09-07T07:17:01.288Z,19.00
2022-09-07T07:20:55.062Z,19.20
2022-09-07T07:24:53.530Z,19.60
2022-09-07T07:33:55.785Z,20.70
2022-09-07T07:43:16.443Z,22.10
2022-09-07T07:47:54.144Z,22.90
2022-09-07T07:56:01.028Z,24.20
2022-09-07T08:03:47.648Z,25.60
2022-09-07T08:11:50.429Z,26.40
2022-09-07T08:16:18.736Z,26.90
2022-09-07T08:20:30.311Z,27.70
2022-09-07T08:24:12.591Z,28.50
2022-09-07T08:28:28.694Z,29.10
2022-09-07T08:36:33.774Z,30.40
2022-09-07T08:40:49.699Z,30.20
2022-09-07T08:48:56.385Z,28.90
2022-09-07T08:53:13.977Z,27.60
2022-09-07T08:57:45.845Z,26.30
2022-09-07T09:02:35.074Z,25.20
2022-09-07T09:25:49.967Z,28.10
2022-09-07T09:29:33.582Z,29.10
2022-09-07T09:34:01.927Z,29.20
2022-09-07T09:38:13.101Z,30.00
2022-09-07T09:46:13.103Z,28.20
2022-09-07T09:55:36.171Z,25.20
2022-09-07T10:17:56.982Z,21.50
2022-09-07T10:22:10.318Z,21.30
2022-09-07T10:25:53.115Z,21.00
2022-09-07T10:30:21.417Z,21.00
2022-09-07T10:34:35.601Z,21.50
2022-09-07T10:47:17.038Z,22.20
2022-09-07T10:51:45.152Z,21.70
2022-09-07T10:55:55.464Z,21.30
2022-09-07T11:04:10.508Z,21.20
2022-09-07T11:09:15.716Z,21.20
2022-09-07T11:12:52.330Z,21.30
2022-09-07T11:20:55.667Z,21.80
2022-09-07T11:34:30.269Z,22.50
2022-09-07T11:38:46.094Z,22.50
2022-09-07T12:27:29.209Z,22.50
2022-09-07T12:39:50.478Z,22.90
2022-09-07T12:47:34.252Z,22.80
2022-09-07T13:08:51.956Z,22.60
2022-09-07T13:21:36.400Z,22.90
2022-09-07T13:26:05.132Z,23.00
2022-09-07T13:30:16.714Z,23.10
2022-09-07T13:33:59.534Z,23.10
2022-09-07T13:41:53.007Z,22.90
2022-09-07T13:46:20.813Z,22.80
2022-09-07T13:50:31.189Z,23.00
2022-09-07T13:58:42.355Z,22.80
2022-09-07T14:02:57.115Z,22.60
2022-09-07T14:06:39.715Z,22.60
2022-09-07T14:11:08.123Z,22.40
2022-09-07T14:15:18.186Z,22.30
2022-09-07T14:19:00.847Z,22.20
2022-09-07T14:26:48.678Z,22.20
2022-09-07T14:31:05.429Z,22.20
2022-09-07T14:34:48.928Z,22.40
2022-09-07T14:39:17.437Z,22.40
2022-09-07T14:43:29.675Z,22.40
2022-09-07T14:51:43.454Z,22.20
2022-09-07T14:55:55.486Z,22.30
2022-09-07T15:01:39.594Z,22.30
2022-09-07T15:10:41.200Z,22.10
2022-09-07T15:15:02.185Z,21.90
2022-09-07T15:23:15.539Z,21.80
2022-09-07T15:27:44.198Z,21.80
2022-09-07T15:35:37.358Z,21.80
2022-09-07T15:39:48.718Z,21.80
2022-09-07T15:43:31.464Z,21.80
2022-09-07T15:48:00.068Z,21.70
2022-09-07T15:52:13.406Z,21.70
2022-09-07T15:55:55.849Z,21.60
2022-09-07T16:00:23.947Z,21.50
2022-09-07T16:04:38.831Z,21.40
2022-09-07T16:21:30.564Z,20.90
2022-09-07T16:25:13.159Z,20.90
2022-09-07T16:37:32.548Z,20.80
2022-09-07T16:41:49.475Z,20.80
2022-09-07T16:49:58.151Z,20.60
2022-09-07T16:54:15.783Z,20.60
2022-09-07T17:06:35.386Z,20.50
2022-09-07T17:24:34.596Z,20.20
2022-09-07T17:28:17.273Z,20.10
2022-09-07T17:32:27.524Z,20.10
2022-09-07T17:40:33.056Z,20.00
2022-09-07T17:49:39.438Z,19.00
2022-09-07T17:54:03.395Z,18.50
2022-09-07T18:02:54.197Z,18.20
2022-09-07T18:29:10.531Z,17.80
2022-09-07T18:33:12.951Z,17.50
2022-09-07T18:36:55.416Z,17.40
2022-09-07T18:41:09.399Z,17.20
2022-09-07T18:48:54.494Z,17.10
2022-09-07T18:52:52.869Z,17.10
2022-09-07T18:56:35.187Z,17.00
2022-09-07T19:00:17.896Z,16.80
2022-09-07T19:04:00.023Z,16.70
2022-09-07T19:07:41.934Z,16.70
2022-09-07T19:11:25.196Z,16.60
2022-09-07T19:15:07.495Z,16.50
2022-09-07T19:18:55.422Z,16.40
2022-09-07T19:22:37.929Z,16.30
2022-09-07T19:26:20.162Z,16.30
2022-09-07T19:30:02.256Z,16.20
2022-09-07T19:33:44.116Z,16.10
2022-09-07T19:37:27.400Z,16.10
2022-09-07T19:41:12.960Z,16.00
2022-09-07T19:44:55.028Z,15.90
2022-09-07T19:48:37.730Z,15.70
2022-09-07T19:52:19.697Z,15.60
2022-09-07T19:56:13.060Z,15.50
2022-09-07T19:59:56.819Z,15.40
2022-09-07T20:03:39.883Z,15.40
2022-09-07T20:07:21.791Z,15.30
2022-09-07T20:11:09.718Z,15.20
2022-09-07T20:14:51.719Z,15.10
2022-09-07T20:18:35.897Z,15.10
2022-09-07T20:22:18.107Z,15.00
2022-09-07T20:26:02.228Z,14.90
2022-09-07T20:29:44.079Z,14.80
2022-09-07T20:33:25.979Z,14.80
2022-09-07T20:37:07.854Z,14.70
2022-09-07T20:40:58.731Z,14.60
2022-09-07T20:44:40.581Z,14.60
2022-09-07T20:48:22.541Z,14.50
2022-09-07T20:52:04.384Z,14.50
2022-09-07T20:55:46.231Z,14.40
2022-09-07T20:59:28.183Z,14.40
2022-09-07T21:03:10.672Z,14.40
2022-09-07T21:06:53.089Z,14.40
2022-09-07T21:10:39.654Z,14.30
2022-09-07T21:14:22.323Z,14.30
2022-09-07T21:18:04.423Z,14.30
2022-09-07T21:21:46.328Z,14.30
2022-09-07T21:25:28.344Z,14.30
2022-09-07T21:29:24.212Z,14.30
2022-09-07T21:33:06.103Z,14.20
2022-09-07T21:36:48.063Z,14.20
2022-09-07T21:40:29.951Z,14.10
2022-09-07T21:44:13.829Z,14.10
2022-09-07T21:47:55.868Z,14.10
2022-09-07T21:51:38.246Z,14.00
2022-09-07T21:55:20.348Z,14.00
2022-09-07T21:59:02.795Z,14.00
2022-09-07T22:02:44.778Z,13.90
2022-09-07T22:06:30.155Z,13.90
2022-09-07T22:10:12.265Z,13.90
2022-09-07T22:13:56.117Z,13.90
2022-09-07T22:17:42.292Z,13.90
2022-09-07T22:21:29.029Z,14.00
2022-09-07T22:25:11.384Z,14.00
2022-09-07T22:28:53.596Z,14.00
2022-09-07T22:32:35.512Z,14.10
2022-09-07T22:36:29.171Z,14.10
2022-09-07T22:40:12.382Z,14.10
2022-09-07T22:43:55.015Z,14.20
2022-09-07T22:47:37.073Z,14.20
2022-09-07T22:51:18.965Z,14.30
2022-09-07T22:55:00.865Z,14.40
2022-09-07T22:58:47.350Z,14.40
2022-09-07T23:02:29.202Z,14.40
2022-09-07T23:06:22.906Z,14.50
2022-09-07T23:10:04.959Z,14.50
2022-09-07T23:13:53.815Z,14.50
2022-09-07T23:17:35.810Z,14.50
2022-09-07T23:21:18.530Z,14.50
2022-09-07T23:25:00.409Z,14.50
2022-09-07T23:28:42.674Z,14.50
2022-09-07T23:32:24.518Z,14.40
2022-09-07T23:36:08.210Z,14.40
2022-09-07T23:39:50.154Z,14.40
2022-09-07T23:43:32.297Z,14.40
2022-09-07T23:47:15.025Z,14.40
2022-09-07T23:50:56.982Z,14.40
2022-09-07T23:54:39.127Z,14.40
2022-09-07T23:58:22.263Z,14.40
